createdAt,value
2019-02-02T00:04:09.014Z,5.20
2019-02-02T00:09:14.084Z,5.20
2019-02-02T00:14:18.832Z,5.30
2019-02-02T00:19:23.646Z,5.60
2019-02-02T00:24:29.179Z,5.80
2019-02-02T00:29:34.204Z,5.90
2019-02-02T00:34:38.935Z,6.00
2019-02-02T00:39:44.007Z,6.10
2019-02-02T00:44:50.077Z,5.90
2019-02-02T00:49:54.953Z,5.80
2019-02-02T00:54:59.716Z,5.70
2019-02-02T01:00:05.183Z,5.40
2019-02-02T01:05:13.360Z,5.50
2019-02-02T01:10:20.876Z,5.30
2019-02-02T01:15:25.811Z,5.30
2019-02-02T01:20:31.676Z,5.40
2019-02-02T01:25:36.618Z,5.70
2019-02-02T01:30:41.313Z,5.60
2019-02-02T01:35:47.047Z,5.20
2019-02-02T01:40:51.903Z,4.60
2019-02-02T01:45:56.813Z,4.70
2019-02-02T01:51:01.886Z,4.80
2019-02-02T01:56:07.003Z,4.70
2019-02-02T02:01:12.291Z,4.50
2019-02-02T02:06:17.217Z,4.90
2019-02-02T02:11:21.996Z,4.80
2019-02-02T02:16:27.952Z,4.70
2019-02-02T02:21:32.868Z,4.70
2019-02-02T02:31:43.036Z,4.70
2019-02-02T02:36:47.771Z,4.80
2019-02-02T02:41:53.259Z,4.90
2019-02-02T02:46:59.459Z,5.00
2019-02-02T02:52:04.591Z,5.00
2019-02-02T02:57:09.574Z,5.10
2019-02-02T03:02:15.161Z,5.20
2019-02-02T03:07:20.068Z,5.30
2019-02-02T03:12:25.515Z,5.40
2019-02-02T03:17:30.347Z,5.50
2019-02-02T03:22:35.458Z,5.60
2019-02-02T03:27:41.472Z,5.90
2019-02-02T03:32:46.219Z,5.90
2019-02-02T03:37:51.128Z,5.70
2019-02-02T03:42:56.157Z,5.80
2019-02-02T03:48:00.994Z,6.00
2019-02-02T03:53:06.093Z,6.20
2019-02-02T03:58:29.053Z,6.20
2019-02-02T04:03:33.797Z,4.60
2019-02-02T04:08:40.486Z,4.10
2019-02-02T04:13:45.278Z,4.20
2019-02-02T04:18:50.064Z,4.40
2019-02-02T04:23:55.225Z,4.40
2019-02-02T04:29:00.466Z,4.30
2019-02-02T04:34:05.603Z,4.60
2019-02-02T04:39:10.824Z,4.50
2019-02-02T04:44:15.534Z,4.40
2019-02-02T04:49:20.355Z,4.40
2019-02-02T04:54:25.541Z,4.70
2019-02-02T04:59:30.385Z,4.70
2019-02-02T05:04:36.745Z,4.90
2019-02-02T05:09:41.683Z,4.80
2019-02-02T05:14:51.138Z,4.90
2019-02-02T05:19:56.046Z,5.00
2019-02-02T05:25:00.795Z,5.10
2019-02-02T05:30:08.368Z,4.80
2019-02-02T05:35:13.116Z,4.80
2019-02-02T05:40:19.487Z,4.50
2019-02-02T05:45:24.522Z,4.20
2019-02-02T05:50:32.584Z,4.10
2019-02-02T05:55:40.782Z,4.30
2019-02-02T06:00:51.352Z,4.40
2019-02-02T06:05:56.066Z,4.60
2019-02-02T06:11:00.841Z,4.70
2019-02-02T06:16:06.027Z,4.90
2019-02-02T06:21:13.137Z,5.00
2019-02-02T06:26:18.016Z,5.30
2019-02-02T06:31:23.708Z,5.80
2019-02-02T06:36:31.680Z,5.80
2019-02-02T06:41:36.390Z,5.70
2019-02-02T06:46:43.722Z,5.80
2019-02-02T06:51:47.700Z,6.00
2019-02-02T06:56:52.446Z,6.10
2019-02-02T07:01:57.146Z,6.20
2019-02-02T07:07:02.382Z,6.10
2019-02-02T07:12:07.824Z,6.20
2019-02-02T07:17:12.592Z,6.20
2019-02-02T07:22:17.253Z,6.20
2019-02-02T07:27:22.049Z,6.00
2019-02-02T07:32:27.013Z,6.00
2019-02-02T07:37:32.145Z,6.10
2019-02-02T07:42:39.163Z,6.20
2019-02-02T07:47:44.949Z,6.20
2019-02-02T07:52:55.279Z,6.20
2019-02-02T07:58:00.179Z,6.20
2019-02-02T08:03:07.173Z,6.10
2019-02-02T08:08:11.947Z,6.00
2019-02-02T08:13:16.936Z,6.00
2019-02-02T08:18:21.844Z,6.10
2019-02-02T08:28:31.077Z,5.80
2019-02-02T08:33:35.992Z,6.20
2019-02-02T08:38:41.301Z,6.40
2019-02-02T08:43:46.113Z,6.40
2019-02-02T08:48:51.337Z,6.50
2019-02-02T08:53:56.230Z,6.50
2019-02-02T08:59:01.708Z,6.50
2019-02-02T09:04:06.667Z,6.50
2019-02-02T09:09:11.655Z,6.60
2019-02-02T09:14:25.512Z,6.60
2019-02-02T09:19:30.300Z,6.50
2019-02-02T09:24:35.561Z,6.50
2019-02-02T09:29:40.724Z,6.50
2019-02-02T09:34:45.785Z,6.30
2019-02-02T09:39:53.943Z,6.30
2019-02-02T09:44:59.100Z,6.40
2019-02-02T09:50:05.052Z,6.40
2019-02-02T09:55:12.029Z,6.40
2019-02-02T10:00:22.415Z,6.40
2019-02-02T10:05:27.719Z,6.60
2019-02-02T10:10:34.010Z,6.70
2019-02-02T10:15:41.015Z,6.70
2019-02-02T10:20:46.139Z,6.70
2019-02-02T10:25:51.316Z,6.90
2019-02-02T10:30:57.214Z,7.00
2019-02-02T10:36:04.330Z,7.00
2019-02-02T10:41:09.220Z,7.00
2019-02-02T10:46:16.176Z,7.00
2019-02-02T10:51:20.951Z,7.00
2019-02-02T10:56:26.419Z,7.10
2019-02-02T11:01:31.281Z,7.10
2019-02-02T11:06:38.288Z,6.90
2019-02-02T11:11:43.496Z,6.80
2019-02-02T11:16:48.464Z,6.90
2019-02-02T11:21:53.451Z,6.90
2019-02-02T11:26:58.352Z,6.90
2019-02-02T11:32:03.315Z,7.00
2019-02-02T11:37:08.174Z,7.00
2019-02-02T11:42:13.311Z,6.90
2019-02-02T11:47:18.245Z,6.90
2019-02-02T11:52:23.402Z,7.00
2019-02-02T11:57:28.405Z,7.00
2019-02-02T12:02:33.279Z,6.90
2019-02-02T12:07:38.198Z,6.90
2019-02-02T12:12:43.018Z,6.90
2019-02-02T12:17:48.092Z,6.90
2019-02-02T12:22:52.830Z,7.00
2019-02-02T12:27:57.974Z,7.00
2019-02-02T12:33:03.772Z,7.00
2019-02-02T12:38:08.684Z,6.90
2019-02-02T12:43:13.474Z,6.90
2019-02-02T12:48:18.478Z,6.80
2019-02-02T12:53:23.754Z,6.70
2019-02-02T12:58:28.899Z,6.80
2019-02-02T13:03:33.855Z,6.50
2019-02-02T13:08:38.748Z,6.70
2019-02-02T13:13:47.052Z,6.60
2019-02-02T13:18:52.273Z,6.70
2019-02-02T13:24:15.968Z,6.70
2019-02-02T13:29:21.347Z,6.80
2019-02-02T13:34:26.470Z,6.70
2019-02-02T13:39:31.387Z,6.60
2019-02-02T13:44:39.139Z,6.60
2019-02-02T13:49:44.402Z,6.60
2019-02-02T13:54:49.578Z,6.50
2019-02-02T13:59:54.383Z,6.40
2019-02-02T14:04:59.475Z,6.40
2019-02-02T14:10:05.213Z,6.20
2019-02-02T14:15:10.970Z,6.30
2019-02-02T14:20:16.085Z,6.40
2019-02-02T14:25:21.307Z,6.50
2019-02-02T14:30:26.390Z,6.40
2019-02-02T14:35:31.319Z,6.40
2019-02-02T14:40:36.093Z,6.40
2019-02-02T14:45:46.911Z,6.20
2019-02-02T14:51:06.212Z,6.20
2019-02-02T14:56:20.401Z,6.10
2019-02-02T15:01:38.875Z,6.00
2019-02-02T15:07:14.859Z,6.30
2019-02-02T15:12:26.480Z,6.40
2019-02-02T15:17:52.959Z,6.20
2019-02-02T15:29:02.435Z,6.20
2019-02-02T15:39:45.129Z,5.80
2019-02-02T15:45:13.125Z,6.00
2019-02-02T15:50:18.642Z,5.90
2019-02-02T15:55:26.971Z,6.10
2019-02-02T16:00:34.344Z,6.10
2019-02-02T16:05:39.535Z,6.10
2019-02-02T16:10:46.402Z,6.00
2019-02-02T16:15:51.319Z,7.40
2019-02-02T16:20:56.677Z,6.00
2019-02-02T16:26:01.705Z,6.10
2019-02-02T16:31:06.891Z,6.10
2019-02-02T16:36:12.008Z,6.00
2019-02-02T16:41:17.069Z,6.00
2019-02-02T16:46:23.557Z,6.10
2019-02-02T16:51:28.686Z,6.00
2019-02-02T16:56:35.398Z,5.90
2019-02-02T17:01:41.016Z,5.80
2019-02-02T17:06:47.385Z,5.70
2019-02-02T17:11:55.625Z,5.80
2019-02-02T17:17:00.610Z,5.70
2019-02-02T17:22:05.455Z,5.70
2019-02-02T17:27:10.476Z,5.70
2019-02-02T17:32:15.538Z,5.50
2019-02-02T17:37:20.573Z,5.70
2019-02-02T17:42:25.492Z,5.70
2019-02-02T17:47:31.120Z,5.70
2019-02-02T17:52:36.160Z,5.80
2019-02-02T17:57:41.154Z,5.80
2019-02-02T18:02:46.062Z,5.80
2019-02-02T18:07:50.963Z,5.80
2019-02-02T18:12:56.216Z,5.80
2019-02-02T18:18:07.417Z,5.90
2019-02-02T18:23:17.946Z,5.90
2019-02-02T18:33:26.014Z,5.90
2019-02-02T18:38:31.308Z,5.80
2019-02-02T18:43:36.244Z,6.00
2019-02-02T18:48:41.208Z,5.90
2019-02-02T18:53:46.161Z,5.90
2019-02-02T18:58:51.084Z,5.80
2019-02-02T19:03:56.806Z,5.70
2019-02-02T19:09:01.613Z,5.70
2019-02-02T19:14:06.650Z,5.70
2019-02-02T19:19:11.611Z,5.70
2019-02-02T19:24:17.443Z,5.70
2019-02-02T19:29:22.372Z,5.50
2019-02-02T19:39:32.793Z,5.30
2019-02-02T19:44:37.807Z,5.40
2019-02-02T19:54:50.816Z,5.30
2019-02-02T19:59:55.781Z,5.50
2019-02-02T20:05:03.245Z,5.50
2019-02-02T20:10:10.529Z,5.60
2019-02-02T20:15:17.742Z,5.60
2019-02-02T20:20:24.344Z,5.60
2019-02-02T20:25:33.862Z,5.70
2019-02-02T20:35:43.670Z,5.60
2019-02-02T20:40:51.662Z,5.60
2019-02-02T20:45:56.978Z,5.60
2019-02-02T20:51:03.457Z,5.70
2019-02-02T21:01:13.023Z,5.70
2019-02-02T21:06:18.110Z,5.40
2019-02-02T21:11:23.131Z,5.60
2019-02-02T21:21:32.325Z,5.70
2019-02-02T21:26:37.561Z,5.90
2019-02-02T21:31:42.513Z,5.90
2019-02-02T21:36:47.747Z,6.00
2019-02-02T21:41:52.975Z,6.00
2019-02-02T21:46:57.835Z,6.00
2019-02-02T21:52:02.739Z,6.00
2019-02-02T21:57:08.389Z,6.00
2019-02-02T22:02:13.451Z,6.00
2019-02-02T22:12:23.063Z,5.90
2019-02-02T22:17:27.968Z,5.80
2019-02-02T22:22:32.935Z,5.90
2019-02-02T22:27:45.137Z,5.80
2019-02-02T22:32:50.021Z,5.70
2019-02-02T22:37:55.039Z,5.70
2019-02-02T22:43:00.072Z,5.50
2019-02-02T22:48:06.187Z,5.50
2019-02-02T22:53:11.119Z,5.50
2019-02-02T22:58:16.364Z,5.50
2019-02-02T23:03:22.837Z,5.60
2019-02-02T23:09:05.184Z,5.70
2019-02-02T23:14:45.845Z,5.60
2019-02-02T23:19:52.239Z,5.60
2019-02-02T23:30:01.216Z,5.70
2019-02-02T23:35:07.356Z,5.80
2019-02-02T23:40:13.941Z,5.80
2019-02-02T23:45:20.466Z,5.90
2019-02-02T23:55:29.787Z,5.60
